Reed, Ohio
Current Conditions -  °F | °C
As of 11:52 PM on Thursday 30 Oct 2014 (Local Time) from KMFD Reporting Station
Overcast Overcast  
Wind Chill: 44°   Ceiling: 3800
Heat Index: 44°   Visibility: 10mi
Dew Point: 36°   Wind: 3mph
Humidity: 73%   Direction: 160°SSE
Pressure: 30.03"   Gusts: NA
Location:  41.0654°N, 82.876°W
Report Text: KMFD 310352Z AUTO 16003KT 10SM OVC038 07/02 A3003 RMK AO2 SLP173 T00670022
Loading
Personal Weather Stations






























Interactive Weather Map
Tropical Storm Tracking
New forecast layout! Learn more

10-Day Weather Forecast

Advertisements
Track Severe Weather on mobile